sensor_id;sensor_type;location;lat;lon;timestamp;temperature;humidity
40600;DHT22;26309;50.924;4.754;2023-02-28T00:01:13;-0.30;99.90
40600;DHT22;26309;50.924;4.754;2023-02-28T00:03:39;-0.50;99.90
40600;DHT22;26309;50.924;4.754;2023-02-28T00:06:06;-0.50;99.90
40600;DHT22;26309;50.924;4.754;2023-02-28T00:08:33;-0.40;99.90
40600;DHT22;26309;50.924;4.754;2023-02-28T00:11:07;-0.50;99.90
40600;DHT22;26309;50.924;4.754;2023-02-28T00:13:39;-0.50;99.90
40600;DHT22;26309;50.924;4.754;2023-02-28T00:16:12;-0.40;99.90
40600;DHT22;26309;50.924;4.754;2023-02-28T00:18:39;-0.40;99.90
40600;DHT22;26309;50.924;4.754;2023-02-28T00:21:05;-0.30;99.90
40600;DHT22;26309;50.924;4.754;2023-02-28T00:23:31;-0.30;99.90
40600;DHT22;26309;50.924;4.754;2023-02-28T00:25:57;-0.40;99.90
40600;DHT22;26309;50.924;4.754;2023-02-28T00:28:25;-0.40;99.90
40600;DHT22;26309;50.924;4.754;2023-02-28T00:30:51;-0.30;99.90
40600;DHT22;26309;50.924;4.754;2023-02-28T00:33:17;-0.30;99.90
40600;DHT22;26309;50.924;4.754;2023-02-28T00:35:43;-0.30;99.90
40600;DHT22;26309;50.924;4.754;2023-02-28T00:38:12;-0.20;99.90
40600;DHT22;26309;50.924;4.754;2023-02-28T00:40:38;-0.30;99.90
40600;DHT22;26309;50.924;4.754;2023-02-28T00:43:04;-0.30;99.90
40600;DHT22;26309;50.924;4.754;2023-02-28T00:45:30;-0.30;99.90
40600;DHT22;26309;50.924;4.754;2023-02-28T00:47:56;-0.30;99.90
40600;DHT22;26309;50.924;4.754;2023-02-28T00:50:22;-0.30;99.90
40600;DHT22;26309;50.924;4.754;2023-02-28T00:52:54;-0.20;99.90
40600;DHT22;26309;50.924;4.754;2023-02-28T00:55:19;0.00;99.90
40600;DHT22;26309;50.924;4.754;2023-02-28T00:57:45;-0.10;99.90
40600;DHT22;26309;50.924;4.754;2023-02-28T01:00:12;-0.10;99.90
40600;DHT22;26309;50.924;4.754;2023-02-28T01:02:38;-0.30;99.90
40600;DHT22;26309;50.924;4.754;2023-02-28T01:05:04;-0.40;99.90
40600;DHT22;26309;50.924;4.754;2023-02-28T01:07:30;-0.30;99.90
40600;DHT22;26309;50.924;4.754;2023-02-28T01:09:56;-0.50;99.90
40600;DHT22;26309;50.924;4.754;2023-02-28T01:12:22;-0.60;99.90
40600;DHT22;26309;50.924;4.754;2023-02-28T01:14:47;-0.70;99.90
40600;DHT22;26309;50.924;4.754;2023-02-28T01:17:13;-0.60;99.90
40600;DHT22;26309;50.924;4.754;2023-02-28T01:19:43;-0.70;99.90
40600;DHT22;26309;50.924;4.754;2023-02-28T01:22:09;-0.80;99.90
40600;DHT22;26309;50.924;4.754;2023-02-28T01:24:35;-0.80;99.90
40600;DHT22;26309;50.924;4.754;2023-02-28T01:27:00;-0.80;99.90
40600;DHT22;26309;50.924;4.754;2023-02-28T01:29:28;-0.80;99.90
40600;DHT22;26309;50.924;4.754;2023-02-28T01:31:54;-0.90;99.90
40600;DHT22;26309;50.924;4.754;2023-02-28T01:34:22;-0.80;99.90
40600;DHT22;26309;50.924;4.754;2023-02-28T01:36:51;-0.70;99.90
40600;DHT22;26309;50.924;4.754;2023-02-28T01:39:17;-0.70;99.90
40600;DHT22;26309;50.924;4.754;2023-02-28T01:41:44;-0.80;99.90
40600;DHT22;26309;50.924;4.754;2023-02-28T01:47:14;-1.00;99.90
40600;DHT22;26309;50.924;4.754;2023-02-28T01:49:40;-1.00;99.90
40600;DHT22;26309;50.924;4.754;2023-02-28T01:52:07;-1.10;99.90
40600;DHT22;26309;50.924;4.754;2023-02-28T01:54:35;-1.00;99.90
40600;DHT22;26309;50.924;4.754;2023-02-28T01:57:05;-1.10;99.90
40600;DHT22;26309;50.924;4.754;2023-02-28T01:59:37;-1.00;99.90
40600;DHT22;26309;50.924;4.754;2023-02-28T02:02:06;-1.20;99.90
40600;DHT22;26309;50.924;4.754;2023-02-28T02:04:37;-1.10;99.90
40600;DHT22;26309;50.924;4.754;2023-02-28T02:07:04;-1.20;99.90
40600;DHT22;26309;50.924;4.754;2023-02-28T02:09:30;-1.20;99.90
40600;DHT22;26309;50.924;4.754;2023-02-28T02:11:56;-1.20;99.90
40600;DHT22;26309;50.924;4.754;2023-02-28T02:14:38;-1.20;99.90
40600;DHT22;26309;50.924;4.754;2023-02-28T02:25:54;-1.40;99.90
40600;DHT22;26309;50.924;4.754;2023-02-28T02:28:38;-1.30;99.90
40600;DHT22;26309;50.924;4.754;2023-02-28T02:37:13;-1.50;99.90
40600;DHT22;26309;50.924;4.754;2023-02-28T02:40:15;-1.50;99.90
40600;DHT22;26309;50.924;4.754;2023-02-28T02:42:41;-1.60;99.90
40600;DHT22;26309;50.924;4.754;2023-02-28T02:45:22;-1.50;99.90
40600;DHT22;26309;50.924;4.754;2023-02-28T02:47:50;-1.60;99.90
40600;DHT22;26309;50.924;4.754;2023-02-28T02:50:26;-1.60;99.90
40600;DHT22;26309;50.924;4.754;2023-02-28T02:52:57;-1.70;99.90
40600;DHT22;26309;50.924;4.754;2023-02-28T02:55:25;-1.90;99.90
40600;DHT22;26309;50.924;4.754;2023-02-28T02:58:03;-1.80;99.90
40600;DHT22;26309;50.924;4.754;2023-02-28T03:00:38;-1.80;99.90
40600;DHT22;26309;50.924;4.754;2023-02-28T03:03:07;-1.80;99.90
40600;DHT22;26309;50.924;4.754;2023-02-28T03:05:44;-1.90;99.90
40600;DHT22;26309;50.924;4.754;2023-02-28T03:08:11;-1.70;99.90
40600;DHT22;26309;50.924;4.754;2023-02-28T03:10:43;-1.60;99.90
40600;DHT22;26309;50.924;4.754;2023-02-28T03:21:49;-2.00;99.90
40600;DHT22;26309;50.924;4.754;2023-02-28T03:27:09;-2.10;99.90
40600;DHT22;26309;50.924;4.754;2023-02-28T03:29:46;-2.00;99.90
40600;DHT22;26309;50.924;4.754;2023-02-28T03:32:27;-1.90;99.90
40600;DHT22;26309;50.924;4.754;2023-02-28T03:35:07;-1.90;99.90
40600;DHT22;26309;50.924;4.754;2023-02-28T03:37:35;-1.90;99.90
40600;DHT22;26309;50.924;4.754;2023-02-28T03:40:08;-2.00;99.90
40600;DHT22;26309;50.924;4.754;2023-02-28T03:42:42;-2.10;99.90
40600;DHT22;26309;50.924;4.754;2023-02-28T03:45:16;-2.20;99.90
40600;DHT22;26309;50.924;4.754;2023-02-28T03:47:50;-2.20;99.90
40600;DHT22;26309;50.924;4.754;2023-02-28T03:50:21;-2.20;99.90
40600;DHT22;26309;50.924;4.754;2023-02-28T03:53:11;-2.20;99.90
40600;DHT22;26309;50.924;4.754;2023-02-28T04:01:40;-2.30;99.90
40600;DHT22;26309;50.924;4.754;2023-02-28T04:04:08;-2.20;99.90
40600;DHT22;26309;50.924;4.754;2023-02-28T04:06:34;-2.10;99.90
40600;DHT22;26309;50.924;4.754;2023-02-28T04:09:11;-2.10;99.90
40600;DHT22;26309;50.924;4.754;2023-02-28T04:11:42;-2.00;99.90
40600;DHT22;26309;50.924;4.754;2023-02-28T04:14:10;-2.00;99.90
40600;DHT22;26309;50.924;4.754;2023-02-28T04:16:38;-1.90;99.90
40600;DHT22;26309;50.924;4.754;2023-02-28T04:19:04;-1.70;99.90
40600;DHT22;26309;50.924;4.754;2023-02-28T04:21:36;-1.50;99.90
40600;DHT22;26309;50.924;4.754;2023-02-28T04:24:07;-1.50;99.90
40600;DHT22;26309;50.924;4.754;2023-02-28T04:26:35;-1.50;99.90
40600;DHT22;26309;50.924;4.754;2023-02-28T04:29:04;-1.50;99.90
40600;DHT22;26309;50.924;4.754;2023-02-28T04:31:31;-1.60;99.90
40600;DHT22;26309;50.924;4.754;2023-02-28T04:33:57;-1.50;99.90
40600;DHT22;26309;50.924;4.754;2023-02-28T04:36:23;-1.30;99.90
40600;DHT22;26309;50.924;4.754;2023-02-28T04:38:52;-1.40;99.90
40600;DHT22;26309;50.924;4.754;2023-02-28T04:41:18;-1.50;99.90
40600;DHT22;26309;50.924;4.754;2023-02-28T04:43:44;-1.50;99.90
40600;DHT22;26309;50.924;4.754;2023-02-28T04:46:10;-1.30;99.90
40600;DHT22;26309;50.924;4.754;2023-02-28T04:48:39;-1.30;99.90
40600;DHT22;26309;50.924;4.754;2023-02-28T04:51:09;-1.50;99.90
40600;DHT22;26309;50.924;4.754;2023-02-28T04:53:37;-1.60;99.90
40600;DHT22;26309;50.924;4.754;2023-02-28T04:56:04;-1.60;99.90
40600;DHT22;26309;50.924;4.754;2023-02-28T04:58:30;-1.60;99.90
40600;DHT22;26309;50.924;4.754;2023-02-28T05:03:44;-1.60;99.90
40600;DHT22;26309;50.924;4.754;2023-02-28T05:06:11;-1.70;99.90
40600;DHT22;26309;50.924;4.754;2023-02-28T05:08:38;-1.50;99.90
40600;DHT22;26309;50.924;4.754;2023-02-28T05:13:45;-1.70;99.90
40600;DHT22;26309;50.924;4.754;2023-02-28T05:16:11;-1.70;99.90
40600;DHT22;26309;50.924;4.754;2023-02-28T05:18:37;-1.50;99.90
40600;DHT22;26309;50.924;4.754;2023-02-28T05:21:03;-1.50;99.90
40600;DHT22;26309;50.924;4.754;2023-02-28T05:23:29;-1.40;99.90
40600;DHT22;26309;50.924;4.754;2023-02-28T05:25:55;-1.30;99.90
40600;DHT22;26309;50.924;4.754;2023-02-28T05:28:33;-1.40;99.90
40600;DHT22;26309;50.924;4.754;2023-02-28T05:31:00;-1.40;99.90
40600;DHT22;26309;50.924;4.754;2023-02-28T05:33:26;-1.40;99.90
40600;DHT22;26309;50.924;4.754;2023-02-28T05:35:53;-1.20;99.90
40600;DHT22;26309;50.924;4.754;2023-02-28T05:38:19;-1.20;99.90
40600;DHT22;26309;50.924;4.754;2023-02-28T05:40:45;-1.30;99.90
40600;DHT22;26309;50.924;4.754;2023-02-28T05:43:11;-1.30;99.90
40600;DHT22;26309;50.924;4.754;2023-02-28T05:45:37;-1.20;99.90
40600;DHT22;26309;50.924;4.754;2023-02-28T05:48:03;-1.20;99.90
40600;DHT22;26309;50.924;4.754;2023-02-28T05:50:29;-1.20;99.90
40600;DHT22;26309;50.924;4.754;2023-02-28T05:52:54;-1.10;99.90
40600;DHT22;26309;50.924;4.754;2023-02-28T05:55:20;-1.30;99.90
40600;DHT22;26309;50.924;4.754;2023-02-28T05:57:47;-1.20;99.90
40600;DHT22;26309;50.924;4.754;2023-02-28T06:00:13;-1.20;99.90
40600;DHT22;26309;50.924;4.754;2023-02-28T06:02:41;-1.10;99.90
40600;DHT22;26309;50.924;4.754;2023-02-28T06:05:16;-1.00;99.90
40600;DHT22;26309;50.924;4.754;2023-02-28T06:07:42;-1.00;99.90
40600;DHT22;26309;50.924;4.754;2023-02-28T06:10:10;-0.90;99.90
40600;DHT22;26309;50.924;4.754;2023-02-28T06:12:37;-1.00;99.90
40600;DHT22;26309;50.924;4.754;2023-02-28T06:15:04;-1.00;99.90
40600;DHT22;26309;50.924;4.754;2023-02-28T06:17:30;-1.10;99.90
40600;DHT22;26309;50.924;4.754;2023-02-28T06:19:56;-1.00;99.90
40600;DHT22;26309;50.924;4.754;2023-02-28T06:22:23;-1.10;99.90
40600;DHT22;26309;50.924;4.754;2023-02-28T06:24:49;-1.10;99.90
40600;DHT22;26309;50.924;4.754;2023-02-28T06:27:15;-1.20;99.90
40600;DHT22;26309;50.924;4.754;2023-02-28T06:29:40;-1.20;99.90
40600;DHT22;26309;50.924;4.754;2023-02-28T06:32:06;-1.20;99.90
40600;DHT22;26309;50.924;4.754;2023-02-28T06:34:32;-1.10;99.90
40600;DHT22;26309;50.924;4.754;2023-02-28T06:37:00;-1.30;99.90
40600;DHT22;26309;50.924;4.754;2023-02-28T06:39:29;-1.30;99.90
40600;DHT22;26309;50.924;4.754;2023-02-28T06:41:55;-1.30;99.90
40600;DHT22;26309;50.924;4.754;2023-02-28T06:44:22;-1.20;99.90
40600;DHT22;26309;50.924;4.754;2023-02-28T06:46:48;-1.20;99.90
40600;DHT22;26309;50.924;4.754;2023-02-28T06:49:14;-1.00;99.90
40600;DHT22;26309;50.924;4.754;2023-02-28T06:51:42;-0.90;99.90
40600;DHT22;26309;50.924;4.754;2023-02-28T06:54:11;-0.80;99.90
40600;DHT22;26309;50.924;4.754;2023-02-28T06:56:37;-0.80;99.90
40600;DHT22;26309;50.924;4.754;2023-02-28T06:59:03;-0.70;99.90
40600;DHT22;26309;50.924;4.754;2023-02-28T07:01:30;-0.80;99.90
40600;DHT22;26309;50.924;4.754;2023-02-28T07:03:57;-0.70;99.90
40600;DHT22;26309;50.924;4.754;2023-02-28T07:06:24;-0.70;99.90
40600;DHT22;26309;50.924;4.754;2023-02-28T07:08:51;-0.70;99.90
40600;DHT22;26309;50.924;4.754;2023-02-28T07:11:19;-0.70;99.90
40600;DHT22;26309;50.924;4.754;2023-02-28T07:13:44;-0.70;99.90
40600;DHT22;26309;50.924;4.754;2023-02-28T07:16:12;-0.60;99.90
40600;DHT22;26309;50.924;4.754;2023-02-28T07:18:38;-0.40;99.90
40600;DHT22;26309;50.924;4.754;2023-02-28T07:21:06;-0.40;99.90
40600;DHT22;26309;50.924;4.754;2023-02-28T07:23:33;-0.40;99.90
40600;DHT22;26309;50.924;4.754;2023-02-28T07:25:58;-0.30;99.90
40600;DHT22;26309;50.924;4.754;2023-02-28T07:28:25;-0.20;99.90
40600;DHT22;26309;50.924;4.754;2023-02-28T07:30:51;0.00;99.90
40600;DHT22;26309;50.924;4.754;2023-02-28T07:33:17;0.20;99.90
40600;DHT22;26309;50.924;4.754;2023-02-28T07:35:43;0.30;99.90
40600;DHT22;26309;50.924;4.754;2023-02-28T07:38:09;0.40;99.90
40600;DHT22;26309;50.924;4.754;2023-02-28T07:40:35;0.60;99.90
40600;DHT22;26309;50.924;4.754;2023-02-28T07:43:03;0.80;99.90
40600;DHT22;26309;50.924;4.754;2023-02-28T07:45:29;0.90;99.90
40600;DHT22;26309;50.924;4.754;2023-02-28T07:47:57;1.00;99.90
40600;DHT22;26309;50.924;4.754;2023-02-28T07:50:23;1.20;99.90
40600;DHT22;26309;50.924;4.754;2023-02-28T07:52:49;1.30;99.90
40600;DHT22;26309;50.924;4.754;2023-02-28T07:55:15;1.50;99.90
40600;DHT22;26309;50.924;4.754;2023-02-28T07:57:43;1.50;99.90
40600;DHT22;26309;50.924;4.754;2023-02-28T08:00:10;1.70;99.90
40600;DHT22;26309;50.924;4.754;2023-02-28T08:02:37;1.90;99.90
40600;DHT22;26309;50.924;4.754;2023-02-28T08:05:03;2.00;99.90
40600;DHT22;26309;50.924;4.754;2023-02-28T08:07:29;2.00;99.90
40600;DHT22;26309;50.924;4.754;2023-02-28T08:09:54;2.00;99.90
40600;DHT22;26309;50.924;4.754;2023-02-28T08:12:20;2.00;99.90
40600;DHT22;26309;50.924;4.754;2023-02-28T08:14:47;2.00;99.90
40600;DHT22;26309;50.924;4.754;2023-02-28T08:17:13;2.00;99.90
40600;DHT22;26309;50.924;4.754;2023-02-28T08:19:38;2.10;99.90
40600;DHT22;26309;50.924;4.754;2023-02-28T08:22:04;2.30;99.90
40600;DHT22;26309;50.924;4.754;2023-02-28T08:24:30;2.40;99.90
40600;DHT22;26309;50.924;4.754;2023-02-28T08:26:59;2.50;99.90
40600;DHT22;26309;50.924;4.754;2023-02-28T08:29:25;2.60;99.90
40600;DHT22;26309;50.924;4.754;2023-02-28T08:31:51;2.30;99.90
40600;DHT22;26309;50.924;4.754;2023-02-28T08:34:17;2.30;99.90
40600;DHT22;26309;50.924;4.754;2023-02-28T08:36:43;2.30;99.90
40600;DHT22;26309;50.924;4.754;2023-02-28T08:39:13;2.40;99.90
40600;DHT22;26309;50.924;4.754;2023-02-28T08:41:39;2.50;99.90
40600;DHT22;26309;50.924;4.754;2023-02-28T08:44:05;2.60;99.90
40600;DHT22;26309;50.924;4.754;2023-02-28T08:46:31;2.60;99.90
40600;DHT22;26309;50.924;4.754;2023-02-28T08:48:57;2.70;99.90
40600;DHT22;26309;50.924;4.754;2023-02-28T08:51:28;2.80;99.90
40600;DHT22;26309;50.924;4.754;2023-02-28T08:53:55;2.90;99.90
40600;DHT22;26309;50.924;4.754;2023-02-28T08:56:23;3.00;99.90
40600;DHT22;26309;50.924;4.754;2023-02-28T08:58:49;2.80;99.90
40600;DHT22;26309;50.924;4.754;2023-02-28T09:01:22;2.90;99.90
40600;DHT22;26309;50.924;4.754;2023-02-28T09:03:50;3.10;99.90
40600;DHT22;26309;50.924;4.754;2023-02-28T09:06:17;3.30;99.90
40600;DHT22;26309;50.924;4.754;2023-02-28T09:08:43;3.40;99.90
40600;DHT22;26309;50.924;4.754;2023-02-28T09:11:09;3.00;99.90
40600;DHT22;26309;50.924;4.754;2023-02-28T09:13:36;3.00;99.90
40600;DHT22;26309;50.924;4.754;2023-02-28T09:16:04;3.20;99.90
40600;DHT22;26309;50.924;4.754;2023-02-28T09:18:31;3.20;99.90
40600;DHT22;26309;50.924;4.754;2023-02-28T09:20:58;3.20;99.90
40600;DHT22;26309;50.924;4.754;2023-02-28T09:23:24;3.10;99.90
40600;DHT22;26309;50.924;4.754;2023-02-28T09:25:54;3.20;99.90
40600;DHT22;26309;50.924;4.754;2023-02-28T09:28:21;3.40;99.90
40600;DHT22;26309;50.924;4.754;2023-02-28T09:30:49;3.40;99.90
40600;DHT22;26309;50.924;4.754;2023-02-28T09:33:16;3.40;99.90
40600;DHT22;26309;50.924;4.754;2023-02-28T09:35:43;3.40;99.90
40600;DHT22;26309;50.924;4.754;2023-02-28T09:38:09;3.40;99.90
40600;DHT22;26309;50.924;4.754;2023-02-28T09:40:57;3.40;99.90
40600;DHT22;26309;50.924;4.754;2023-02-28T09:43:26;3.50;99.90
40600;DHT22;26309;50.924;4.754;2023-02-28T09:48:35;3.50;99.90
40600;DHT22;26309;50.924;4.754;2023-02-28T09:53:50;3.70;99.90
40600;DHT22;26309;50.924;4.754;2023-02-28T09:56:23;3.70;96.40
40600;DHT22;26309;50.924;4.754;2023-02-28T09:59:14;3.70;97.80
40600;DHT22;26309;50.924;4.754;2023-02-28T10:09:52;4.30;94.70
40600;DHT22;26309;50.924;4.754;2023-02-28T10:12:20;4.30;92.80
40600;DHT22;26309;50.924;4.754;2023-02-28T10:14:52;4.40;94.00
40600;DHT22;26309;50.924;4.754;2023-02-28T10:17:26;4.40;93.90
40600;DHT22;26309;50.924;4.754;2023-02-28T10:20:02;4.40;93.90
40600;DHT22;26309;50.924;4.754;2023-02-28T10:25:15;4.40;92.70
40600;DHT22;26309;50.924;4.754;2023-02-28T10:27:42;4.40;92.50
40600;DHT22;26309;50.924;4.754;2023-02-28T10:30:11;4.20;90.20
40600;DHT22;26309;50.924;4.754;2023-02-28T10:32:40;4.20;90.50
40600;DHT22;26309;50.924;4.754;2023-02-28T10:35:17;4.20;91.00
40600;DHT22;26309;50.924;4.754;2023-02-28T10:37:49;4.20;92.40
40600;DHT22;26309;50.924;4.754;2023-02-28T10:45:29;4.10;89.20
40600;DHT22;26309;50.924;4.754;2023-02-28T10:47:57;4.30;90.70
40600;DHT22;26309;50.924;4.754;2023-02-28T10:53:28;4.60;89.20
40600;DHT22;26309;50.924;4.754;2023-02-28T10:58:54;4.60;87.00
40600;DHT22;26309;50.924;4.754;2023-02-28T11:01:33;4.50;84.50
40600;DHT22;26309;50.924;4.754;2023-02-28T11:04:01;4.50;86.20
40600;DHT22;26309;50.924;4.754;2023-02-28T11:06:32;4.60;85.60
40600;DHT22;26309;50.924;4.754;2023-02-28T11:09:01;4.70;88.10
40600;DHT22;26309;50.924;4.754;2023-02-28T11:11:30;4.80;83.00
40600;DHT22;26309;50.924;4.754;2023-02-28T11:14:14;4.90;82.50
40600;DHT22;26309;50.924;4.754;2023-02-28T11:16:44;4.90;80.50
40600;DHT22;26309;50.924;4.754;2023-02-28T11:19:19;4.90;82.20
40600;DHT22;26309;50.924;4.754;2023-02-28T11:21:57;5.00;78.40
40600;DHT22;26309;50.924;4.754;2023-02-28T11:24:37;5.00;77.50
40600;DHT22;26309;50.924;4.754;2023-02-28T11:27:11;5.10;77.40
40600;DHT22;26309;50.924;4.754;2023-02-28T11:29:49;5.10;77.60
40600;DHT22;26309;50.924;4.754;2023-02-28T11:32:21;5.10;75.40
40600;DHT22;26309;50.924;4.754;2023-02-28T11:35:20;5.20;75.70
40600;DHT22;26309;50.924;4.754;2023-02-28T11:37:47;5.20;76.30
40600;DHT22;26309;50.924;4.754;2023-02-28T11:40:20;5.10;73.20
40600;DHT22;26309;50.924;4.754;2023-02-28T11:43:02;5.10;73.80
40600;DHT22;26309;50.924;4.754;2023-02-28T11:48:27;5.30;75.10
40600;DHT22;26309;50.924;4.754;2023-02-28T11:51:21;5.40;73.90
40600;DHT22;26309;50.924;4.754;2023-02-28T11:56:57;5.40;72.60
40600;DHT22;26309;50.924;4.754;2023-02-28T12:05:53;5.50;75.10
40600;DHT22;26309;50.924;4.754;2023-02-28T12:08:43;5.50;71.00
40600;DHT22;26309;50.924;4.754;2023-02-28T12:11:38;5.50;71.50
40600;DHT22;26309;50.924;4.754;2023-02-28T12:22:00;5.60;72.30
40600;DHT22;26309;50.924;4.754;2023-02-28T12:27:17;5.70;69.50
40600;DHT22;26309;50.924;4.754;2023-02-28T12:29:47;5.80;71.50
40600;DHT22;26309;50.924;4.754;2023-02-28T12:32:35;5.60;70.40
40600;DHT22;26309;50.924;4.754;2023-02-28T12:38:12;5.50;66.40
40600;DHT22;26309;50.924;4.754;2023-02-28T12:40:59;5.60;68.80
40600;DHT22;26309;50.924;4.754;2023-02-28T12:43:34;5.60;67.20
40600;DHT22;26309;50.924;4.754;2023-02-28T12:46:19;5.50;67.90
40600;DHT22;26309;50.924;4.754;2023-02-28T12:48:55;5.50;69.90
40600;DHT22;26309;50.924;4.754;2023-02-28T12:51:23;5.50;68.70
40600;DHT22;26309;50.924;4.754;2023-02-28T12:53:58;5.50;65.50
40600;DHT22;26309;50.924;4.754;2023-02-28T12:56:48;5.40;66.90
40600;DHT22;26309;50.924;4.754;2023-02-28T12:59:31;5.50;67.50
40600;DHT22;26309;50.924;4.754;2023-02-28T13:10:05;5.40;67.10
40600;DHT22;26309;50.924;4.754;2023-02-28T13:12:34;5.40;67.70
40600;DHT22;26309;50.924;4.754;2023-02-28T13:15:08;5.50;70.10
40600;DHT22;26309;50.924;4.754;2023-02-28T13:17:42;5.70;69.90
40600;DHT22;26309;50.924;4.754;2023-02-28T13:20:19;5.80;65.70
40600;DHT22;26309;50.924;4.754;2023-02-28T13:22:50;5.70;66.40
40600;DHT22;26309;50.924;4.754;2023-02-28T13:27:49;5.40;66.30
40600;DHT22;26309;50.924;4.754;2023-02-28T13:46:27;5.60;67.30
40600;DHT22;26309;50.924;4.754;2023-02-28T13:48:53;5.70;68.40
40600;DHT22;26309;50.924;4.754;2023-02-28T13:52:12;5.70;65.90
40600;DHT22;26309;50.924;4.754;2023-02-28T14:05:21;5.60;68.50
40600;DHT22;26309;50.924;4.754;2023-02-28T14:07:54;5.60;67.00
40600;DHT22;26309;50.924;4.754;2023-02-28T14:10:37;5.50;67.00
40600;DHT22;26309;50.924;4.754;2023-02-28T14:16:00;5.40;67.90
40600;DHT22;26309;50.924;4.754;2023-02-28T14:18:34;5.50;68.70
40600;DHT22;26309;50.924;4.754;2023-02-28T14:21:24;5.50;68.70
40600;DHT22;26309;50.924;4.754;2023-02-28T14:27:00;5.60;69.10
40600;DHT22;26309;50.924;4.754;2023-02-28T14:32:54;5.50;70.50
40600;DHT22;26309;50.924;4.754;2023-02-28T14:41:37;5.60;69.60
40600;DHT22;26309;50.924;4.754;2023-02-28T14:44:20;5.50;69.00
40600;DHT22;26309;50.924;4.754;2023-02-28T14:46:49;5.60;70.70
40600;DHT22;26309;50.924;4.754;2023-02-28T14:49:30;5.70;69.80
40600;DHT22;26309;50.924;4.754;2023-02-28T14:52:05;5.70;68.10
40600;DHT22;26309;50.924;4.754;2023-02-28T14:54:32;5.70;70.20
40600;DHT22;26309;50.924;4.754;2023-02-28T14:56:58;5.80;68.80
40600;DHT22;26309;50.924;4.754;2023-02-28T14:59:30;5.60;69.60
40600;DHT22;26309;50.924;4.754;2023-02-28T15:04:56;5.90;70.80
40600;DHT22;26309;50.924;4.754;2023-02-28T15:07:23;5.90;68.10
40600;DHT22;26309;50.924;4.754;2023-02-28T15:10:27;5.90;68.40
40600;DHT22;26309;50.924;4.754;2023-02-28T15:13:04;5.90;69.20
40600;DHT22;26309;50.924;4.754;2023-02-28T15:18:06;6.00;68.70
40600;DHT22;26309;50.924;4.754;2023-02-28T15:20:33;5.90;68.70
40600;DHT22;26309;50.924;4.754;2023-02-28T15:23:01;5.90;68.70
40600;DHT22;26309;50.924;4.754;2023-02-28T15:25:27;5.90;69.90
40600;DHT22;26309;50.924;4.754;2023-02-28T15:27:55;5.90;69.90
40600;DHT22;26309;50.924;4.754;2023-02-28T15:30:27;5.80;72.40
40600;DHT22;26309;50.924;4.754;2023-02-28T15:33:21;5.80;70.20
40600;DHT22;26309;50.924;4.754;2023-02-28T15:35:47;5.80;70.60
40600;DHT22;26309;50.924;4.754;2023-02-28T15:38:25;5.90;71.60
40600;DHT22;26309;50.924;4.754;2023-02-28T15:40:56;5.60;70.50
40600;DHT22;26309;50.924;4.754;2023-02-28T15:43:26;5.50;71.80
40600;DHT22;26309;50.924;4.754;2023-02-28T15:46:00;5.40;72.20
40600;DHT22;26309;50.924;4.754;2023-02-28T15:51:19;5.50;71.00
40600;DHT22;26309;50.924;4.754;2023-02-28T15:56:29;5.50;70.80
40600;DHT22;26309;50.924;4.754;2023-02-28T15:58:59;5.30;71.30
40600;DHT22;26309;50.924;4.754;2023-02-28T16:01:32;5.30;72.20
40600;DHT22;26309;50.924;4.754;2023-02-28T16:04:05;5.20;74.70
40600;DHT22;26309;50.924;4.754;2023-02-28T16:06:40;5.20;73.10
40600;DHT22;26309;50.924;4.754;2023-02-28T16:09:12;5.40;73.50
40600;DHT22;26309;50.924;4.754;2023-02-28T16:11:49;5.40;73.50
40600;DHT22;26309;50.924;4.754;2023-02-28T16:14:24;5.40;72.70
40600;DHT22;26309;50.924;4.754;2023-02-28T16:16:54;5.20;73.50
40600;DHT22;26309;50.924;4.754;2023-02-28T16:19:20;5.20;73.20
40600;DHT22;26309;50.924;4.754;2023-02-28T16:21:47;5.20;73.60
40600;DHT22;26309;50.924;4.754;2023-02-28T16:24:14;5.20;74.00
40600;DHT22;26309;50.924;4.754;2023-02-28T16:26:46;5.10;73.70
40600;DHT22;26309;50.924;4.754;2023-02-28T16:29:47;5.10;74.30
40600;DHT22;26309;50.924;4.754;2023-02-28T16:32:07;5.00;73.60
40600;DHT22;26309;50.924;4.754;2023-02-28T16:34:33;5.10;73.20
40600;DHT22;26309;50.924;4.754;2023-02-28T16:36:59;5.20;72.90
40600;DHT22;26309;50.924;4.754;2023-02-28T16:39:25;5.20;72.90
40600;DHT22;26309;50.924;4.754;2023-02-28T16:41:52;5.00;73.90
40600;DHT22;26309;50.924;4.754;2023-02-28T16:44:41;5.00;73.70
40600;DHT22;26309;50.924;4.754;2023-02-28T16:47:08;5.00;74.70
40600;DHT22;26309;50.924;4.754;2023-02-28T16:49:34;4.90;74.00
40600;DHT22;26309;50.924;4.754;2023-02-28T16:52:16;4.90;73.00
40600;DHT22;26309;50.924;4.754;2023-02-28T16:54:42;4.80;74.40
40600;DHT22;26309;50.924;4.754;2023-02-28T16:57:21;4.70;75.90
40600;DHT22;26309;50.924;4.754;2023-02-28T16:59:49;4.80;75.50
40600;DHT22;26309;50.924;4.754;2023-02-28T17:02:17;4.70;76.40
40600;DHT22;26309;50.924;4.754;2023-02-28T17:04:45;4.70;75.60
40600;DHT22;26309;50.924;4.754;2023-02-28T17:07:13;4.70;77.00
40600;DHT22;26309;50.924;4.754;2023-02-28T17:09:40;4.70;77.40
40600;DHT22;26309;50.924;4.754;2023-02-28T17:12:06;4.70;75.90
40600;DHT22;26309;50.924;4.754;2023-02-28T17:14:34;4.70;76.90
40600;DHT22;26309;50.924;4.754;2023-02-28T17:17:00;4.70;77.50
40600;DHT22;26309;50.924;4.754;2023-02-28T17:19:26;4.70;77.00
40600;DHT22;26309;50.924;4.754;2023-02-28T17:21:53;4.70;77.50
40600;DHT22;26309;50.924;4.754;2023-02-28T17:24:19;4.60;77.80
40600;DHT22;26309;50.924;4.754;2023-02-28T17:26:45;4.60;77.50
40600;DHT22;26309;50.924;4.754;2023-02-28T17:29:21;4.50;77.90
40600;DHT22;26309;50.924;4.754;2023-02-28T17:31:47;4.40;78.00
40600;DHT22;26309;50.924;4.754;2023-02-28T17:34:13;4.30;78.40
40600;DHT22;26309;50.924;4.754;2023-02-28T17:36:45;4.30;79.20
40600;DHT22;26309;50.924;4.754;2023-02-28T17:39:12;4.40;78.20
40600;DHT22;26309;50.924;4.754;2023-02-28T17:41:40;4.30;78.70
40600;DHT22;26309;50.924;4.754;2023-02-28T17:44:07;4.30;78.90
40600;DHT22;26309;50.924;4.754;2023-02-28T17:46:34;4.30;79.40
40600;DHT22;26309;50.924;4.754;2023-02-28T17:49:03;4.20;79.00
40600;DHT22;26309;50.924;4.754;2023-02-28T17:51:29;4.00;81.10
40600;DHT22;26309;50.924;4.754;2023-02-28T17:53:55;3.90;82.10
40600;DHT22;26309;50.924;4.754;2023-02-28T17:56:23;4.00;81.80
40600;DHT22;26309;50.924;4.754;2023-02-28T17:58:50;3.90;81.90
40600;DHT22;26309;50.924;4.754;2023-02-28T18:01:16;3.80;82.20
40600;DHT22;26309;50.924;4.754;2023-02-28T18:03:42;3.70;82.60
40600;DHT22;26309;50.924;4.754;2023-02-28T18:06:26;3.60;83.50
40600;DHT22;26309;50.924;4.754;2023-02-28T18:08:53;3.60;85.20
40600;DHT22;26309;50.924;4.754;2023-02-28T18:11:22;3.40;86.00
40600;DHT22;26309;50.924;4.754;2023-02-28T18:13:52;3.30;86.90
40600;DHT22;26309;50.924;4.754;2023-02-28T18:16:20;3.30;87.40
40600;DHT22;26309;50.924;4.754;2023-02-28T18:18:48;3.10;88.70
40600;DHT22;26309;50.924;4.754;2023-02-28T18:21:15;2.80;92.00
40600;DHT22;26309;50.924;4.754;2023-02-28T18:23:42;2.80;93.30
40600;DHT22;26309;50.924;4.754;2023-02-28T18:26:17;2.70;93.40
40600;DHT22;26309;50.924;4.754;2023-02-28T18:28:43;2.60;94.20
40600;DHT22;26309;50.924;4.754;2023-02-28T18:31:11;2.60;95.30
40600;DHT22;26309;50.924;4.754;2023-02-28T18:33:38;2.50;95.80
40600;DHT22;26309;50.924;4.754;2023-02-28T18:36:05;2.40;96.40